createdAt,value
2022-12-26T00:02:06.340Z,99674.78
2022-12-26T00:04:51.824Z,99677.59
2022-12-26T00:07:19.854Z,99664.75
2022-12-26T00:09:46.667Z,99665.38
2022-12-26T00:12:14.219Z,99653.28
2022-12-26T00:14:40.979Z,99649.16
2022-12-26T00:17:09.221Z,99656.97
2022-12-26T00:19:35.961Z,99647.56
2022-12-26T00:22:02.835Z,99648.22
2022-12-26T00:24:29.643Z,99647.47
2022-12-26T00:26:56.308Z,99636.56
2022-12-26T00:29:23.045Z,99638.41
2022-12-26T00:31:49.905Z,99631.31
2022-12-26T00:34:16.776Z,99623.97
2022-12-26T00:36:43.571Z,99631.06
2022-12-26T00:39:10.995Z,99629.34
2022-12-26T00:41:37.761Z,99624.78
2022-12-26T00:44:04.921Z,99618.09
2022-12-26T00:46:31.750Z,99606.34
2022-12-26T00:48:58.627Z,99608.56
2022-12-26T00:51:25.330Z,99599.88
2022-12-26T00:53:52.974Z,99596.75
2022-12-26T00:56:19.900Z,99610.25
2022-12-26T00:58:46.673Z,99601.44
2022-12-26T01:01:20.032Z,99597.16
2022-12-26T01:03:47.984Z,99602.09
2022-12-26T01:06:16.302Z,99604.38
2022-12-26T01:08:43.274Z,99613.34
2022-12-26T01:11:12.550Z,99610.53
2022-12-26T01:13:39.521Z,99606.63
2022-12-26T01:16:07.584Z,99603.16
2022-12-26T01:18:34.921Z,99593.25
2022-12-26T01:21:08.232Z,99596.47
2022-12-26T01:23:35.069Z,99591.31
2022-12-26T01:26:17.504Z,99582.59
2022-12-26T01:28:48.436Z,99580.41
2022-12-26T01:31:15.880Z,99584.00
2022-12-26T01:33:42.619Z,99590.34
2022-12-26T01:36:09.374Z,99595.63
2022-12-26T01:38:36.146Z,99600.50
2022-12-26T01:41:17.883Z,99600.28
2022-12-26T01:44:01.121Z,99596.00
2022-12-26T01:46:33.928Z,99585.97
2022-12-26T01:49:07.655Z,99590.72
2022-12-26T01:51:39.108Z,99587.75
2022-12-26T01:54:39.366Z,99594.13
2022-12-26T01:56:58.400Z,99597.72
2022-12-26T01:59:28.380Z,99589.72
2022-12-26T02:01:55.842Z,99605.19
2022-12-26T02:04:45.213Z,99582.03
2022-12-26T02:07:12.181Z,99575.88
2022-12-26T02:09:39.538Z,99569.53
2022-12-26T02:12:35.622Z,99570.75
2022-12-26T02:15:01.773Z,99574.53
2022-12-26T02:17:28.625Z,99574.44
2022-12-26T02:20:21.712Z,99563.16
2022-12-26T02:22:54.417Z,99569.41
2022-12-26T02:26:10.197Z,99569.41
2022-12-26T02:29:02.112Z,99561.09
2022-12-26T02:31:28.709Z,99554.59
2022-12-26T02:34:19.591Z,99555.81
2022-12-26T02:37:10.419Z,99561.22
2022-12-26T02:39:58.357Z,99562.28
2022-12-26T02:42:32.758Z,99573.63
2022-12-26T02:45:38.206Z,99569.06
2022-12-26T02:48:20.044Z,99570.78
2022-12-26T02:51:23.573Z,99569.94
2022-12-26T02:54:14.858Z,99569.69
2022-12-26T02:57:10.664Z,99561.72
2022-12-26T03:00:14.174Z,99567.09
2022-12-26T03:03:10.993Z,99564.31
2022-12-26T03:06:17.582Z,99563.19
2022-12-26T03:09:13.540Z,99561.47
2022-12-26T03:12:01.795Z,99570.31
2022-12-26T03:15:06.995Z,99562.94
2022-12-26T03:17:40.276Z,99574.38
2022-12-26T03:20:11.167Z,99566.88
2022-12-26T03:22:43.780Z,99562.59
2022-12-26T03:25:44.696Z,99561.88
2022-12-26T03:28:13.866Z,99569.81
2022-12-26T03:30:52.312Z,99571.53
2022-12-26T03:33:42.162Z,99573.91
2022-12-26T03:36:22.543Z,99570.97
2022-12-26T03:39:08.051Z,99568.84
2022-12-26T03:42:22.836Z,99555.25
2022-12-26T03:45:22.031Z,99554.28
2022-12-26T03:48:42.228Z,99548.97
2022-12-26T03:51:38.405Z,99548.88
2022-12-26T03:54:45.266Z,99554.88
2022-12-26T03:57:36.949Z,99552.41
2022-12-26T04:00:26.663Z,99556.97
2022-12-26T04:03:17.445Z,99557.56
2022-12-26T04:06:05.774Z,99559.28
2022-12-26T04:09:39.282Z,99563.22
2022-12-26T04:12:29.765Z,99559.19
2022-12-26T04:15:44.253Z,99553.19
2022-12-26T04:18:35.961Z,99558.09
2022-12-26T04:21:34.501Z,99549.38
2022-12-26T04:24:28.223Z,99543.63
2022-12-26T04:27:20.001Z,99542.38
2022-12-26T04:30:05.469Z,99545.66
2022-12-26T04:32:58.742Z,99536.97
2022-12-26T04:36:03.208Z,99537.47
2022-12-26T04:38:52.559Z,99538.81
2022-12-26T04:41:40.292Z,99536.84
2022-12-26T04:44:11.886Z,99542.25
2022-12-26T04:46:45.067Z,99543.22
2022-12-26T04:49:33.413Z,99545.56
2022-12-26T04:52:02.801Z,99542.50
2022-12-26T04:54:29.566Z,99545.56
2022-12-26T04:56:56.344Z,99543.38
2022-12-26T04:59:23.666Z,99548.53
2022-12-26T05:02:09.489Z,99539.53
2022-12-26T05:04:54.776Z,99533.03
2022-12-26T05:07:47.574Z,99533.53
2022-12-26T05:10:32.471Z,99540.25
2022-12-26T05:12:59.118Z,99540.75
2022-12-26T05:15:25.951Z,99536.09
2022-12-26T05:18:11.218Z,99534.63
2022-12-26T05:20:58.533Z,99532.78
2022-12-26T05:23:46.590Z,99528.84
2022-12-26T05:26:41.671Z,99527.72
2022-12-26T05:29:08.616Z,99532.91
2022-12-26T05:31:36.928Z,99529.09
2022-12-26T05:34:12.701Z,99525.16
2022-12-26T05:36:47.099Z,99526.88
2022-12-26T05:39:16.476Z,99526.50
2022-12-26T05:41:43.139Z,99523.94
2022-12-26T05:44:10.891Z,99519.03
2022-12-26T05:46:38.902Z,99518.16
2022-12-26T05:49:06.459Z,99521.22
2022-12-26T05:51:33.388Z,99529.59
2022-12-26T05:54:00.299Z,99525.16
2022-12-26T05:56:27.128Z,99524.66
2022-12-26T05:58:59.248Z,99525.41
2022-12-26T06:01:27.948Z,99522.44
2022-12-26T06:03:57.357Z,99516.56
2022-12-26T06:06:25.760Z,99515.34
2022-12-26T06:08:54.719Z,99522.22
2022-12-26T06:11:21.937Z,99523.19
2022-12-26T06:13:48.740Z,99523.44
2022-12-26T06:16:17.645Z,99523.44
2022-12-26T06:18:45.376Z,99518.63
2022-12-26T06:21:18.542Z,99527.72
2022-12-26T06:23:45.934Z,99534.50
2022-12-26T06:26:12.952Z,99533.63
2022-12-26T06:28:41.498Z,99528.97
2022-12-26T06:31:11.790Z,99526.13
2022-12-26T06:33:38.684Z,99533.28
2022-12-26T06:36:10.836Z,99527.38
2022-12-26T06:38:37.607Z,99520.00
2022-12-26T06:41:06.182Z,99529.31
2022-12-26T06:43:33.200Z,99529.94
2022-12-26T06:46:02.133Z,99531.69
2022-12-26T06:48:29.438Z,99543.09
2022-12-26T06:50:57.022Z,99535.13
2022-12-26T06:53:24.957Z,99540.00
2022-12-26T06:55:52.391Z,99541.84
2022-12-26T06:58:19.196Z,99531.28
2022-12-26T07:00:45.928Z,99521.34
2022-12-26T07:03:12.763Z,99513.34
2022-12-26T07:05:39.712Z,99524.06
2022-12-26T07:08:07.100Z,99524.16
2022-12-26T07:10:37.264Z,99530.81
2022-12-26T07:13:04.139Z,99525.31
2022-12-26T07:15:31.722Z,99531.91
2022-12-26T07:17:58.418Z,99528.34
2022-12-26T07:20:25.139Z,99527.59
2022-12-26T07:22:51.892Z,99521.19
2022-12-26T07:25:19.727Z,99525.00
2022-12-26T07:27:46.607Z,99532.94
2022-12-26T07:30:13.455Z,99518.41
2022-12-26T07:32:40.198Z,99516.75
2022-12-26T07:35:07.219Z,99522.31
2022-12-26T07:37:33.892Z,99535.56
2022-12-26T07:40:00.659Z,99539.53
2022-12-26T07:42:28.223Z,99535.22
2022-12-26T07:44:56.013Z,99535.22
2022-12-26T07:47:22.741Z,99533.16
2022-12-26T07:49:49.449Z,99533.00
2022-12-26T07:52:16.294Z,99532.03
2022-12-26T07:54:42.926Z,99536.44
2022-12-26T07:57:46.382Z,99538.38
2022-12-26T07:59:56.296Z,99527.00
2022-12-26T08:02:23.368Z,99527.94
2022-12-26T08:04:52.347Z,99531.47
2022-12-26T08:07:19.126Z,99532.97
2022-12-26T08:09:45.939Z,99533.97
2022-12-26T08:12:13.648Z,99522.16
2022-12-26T08:14:40.852Z,99528.72
2022-12-26T08:17:10.042Z,99530.66
2022-12-26T08:19:36.856Z,99518.44
2022-12-26T08:22:03.680Z,99511.47
2022-12-26T08:24:30.621Z,99507.16
2022-12-26T08:26:57.294Z,99506.63
2022-12-26T08:29:24.150Z,99503.81
2022-12-26T08:31:50.966Z,99511.31
2022-12-26T08:34:17.715Z,99510.91
2022-12-26T08:36:45.363Z,99519.16
2022-12-26T08:39:12.076Z,99517.22
2022-12-26T08:41:40.778Z,99517.69
2022-12-26T08:44:26.737Z,99517.03
2022-12-26T08:46:54.161Z,99512.75
2022-12-26T08:49:20.870Z,99505.38
2022-12-26T08:51:47.699Z,99507.59
2022-12-26T08:54:15.314Z,99508.59
2022-12-26T08:56:42.036Z,99497.94
2022-12-26T08:59:08.833Z,99507.91
2022-12-26T09:01:35.827Z,99497.41
2022-12-26T09:04:04.449Z,99491.78
2022-12-26T09:06:36.421Z,99488.69
2022-12-26T09:09:04.733Z,99488.50
2022-12-26T09:11:31.944Z,99489.59
2022-12-26T09:14:00.898Z,99494.44
2022-12-26T09:16:39.357Z,99485.44
2022-12-26T09:19:27.791Z,99482.00
2022-12-26T09:22:17.186Z,99477.41
2022-12-26T09:24:44.227Z,99475.88
2022-12-26T09:27:10.985Z,99477.94
2022-12-26T09:29:39.241Z,99465.59
2022-12-26T09:32:07.645Z,99475.69
2022-12-26T09:34:34.378Z,99461.28
2022-12-26T09:37:01.085Z,99456.41
2022-12-26T09:39:27.875Z,99453.50
2022-12-26T09:42:23.728Z,99444.22
2022-12-26T09:45:03.029Z,99433.56
2022-12-26T09:47:56.941Z,99437.84
2022-12-26T09:50:36.044Z,99437.44
2022-12-26T09:53:13.745Z,99432.59
2022-12-26T09:55:49.322Z,99443.03
2022-12-26T09:58:31.310Z,99427.78
2022-12-26T10:01:13.380Z,99425.13
2022-12-26T10:03:46.270Z,99422.81
2022-12-26T10:06:14.703Z,99417.84
2022-12-26T10:09:09.195Z,99415.03
2022-12-26T10:11:44.976Z,99420.88
2022-12-26T10:14:25.359Z,99416.34
2022-12-26T10:16:59.919Z,99422.28
2022-12-26T10:20:12.225Z,99415.03
2022-12-26T10:23:06.270Z,99407.22
2022-12-26T10:25:46.162Z,99400.88
2022-12-26T10:28:39.144Z,99395.41
2022-12-26T10:31:13.671Z,99397.13
2022-12-26T10:33:56.771Z,99393.25
2022-12-26T10:36:47.206Z,99387.75
2022-12-26T10:39:21.188Z,99383.44
2022-12-26T10:41:54.919Z,99379.16
2022-12-26T10:44:27.318Z,99385.41
2022-12-26T10:47:03.362Z,99379.47
2022-12-26T10:49:30.218Z,99387.47
2022-12-26T10:51:59.971Z,99379.75
2022-12-26T10:54:28.705Z,99387.19
2022-12-26T10:57:01.310Z,99388.59
2022-12-26T10:59:55.430Z,99380.50
2022-12-26T11:02:34.594Z,99383.88
2022-12-26T11:05:15.999Z,99377.78
2022-12-26T11:08:08.140Z,99375.50
2022-12-26T11:10:35.004Z,99380.78
2022-12-26T11:13:06.838Z,99391.69
2022-12-26T11:15:50.791Z,99380.47
2022-12-26T11:18:27.823Z,99382.91
2022-12-26T11:20:54.812Z,99391.47
2022-12-26T11:23:31.805Z,99382.88
2022-12-26T11:26:00.955Z,99371.22
2022-12-26T11:28:35.265Z,99382.19
2022-12-26T11:31:06.166Z,99385.31
2022-12-26T11:33:33.691Z,99378.63
2022-12-26T11:36:17.462Z,99368.09
2022-12-26T11:38:55.673Z,99368.94
2022-12-26T11:41:32.334Z,99374.75
2022-12-26T11:43:58.946Z,99381.63
2022-12-26T11:46:38.077Z,99384.19
2022-12-26T11:49:05.726Z,99381.63
2022-12-26T11:51:42.483Z,99395.88
2022-12-26T11:54:29.958Z,99393.44
2022-12-26T11:57:05.581Z,99392.28
2022-12-26T11:59:32.404Z,99386.06
2022-12-26T12:02:34.211Z,99388.88
2022-12-26T12:05:12.285Z,99393.84
2022-12-26T12:07:51.986Z,99393.28
2022-12-26T12:10:36.760Z,99386.00
2022-12-26T12:13:10.735Z,99390.84
2022-12-26T12:15:54.317Z,99382.56
2022-12-26T12:18:31.485Z,99392.53
2022-12-26T12:20:58.074Z,99387.13
2022-12-26T12:23:52.652Z,99390.53
2022-12-26T12:30:00.852Z,99368.84
2022-12-26T12:32:38.350Z,99369.59
2022-12-26T12:35:26.496Z,99385.00
2022-12-26T12:38:30.984Z,99387.00
2022-12-26T12:41:13.858Z,99385.84
2022-12-26T12:43:59.319Z,99384.56
2022-12-26T12:46:57.740Z,99397.22
2022-12-26T12:49:49.054Z,99403.81
2022-12-26T12:52:42.044Z,99401.66
2022-12-26T12:55:33.339Z,99426.75
2022-12-26T12:58:18.087Z,99452.41
2022-12-26T13:00:52.790Z,99480.03
2022-12-26T13:03:28.588Z,99485.66
2022-12-26T13:05:55.241Z,99519.78
2022-12-26T13:08:53.797Z,99641.09
2022-12-26T13:11:32.576Z,99614.16
2022-12-26T13:14:22.484Z,99647.91
2022-12-26T13:17:06.148Z,99664.03
2022-12-26T13:19:41.260Z,99663.44
2022-12-26T13:22:15.039Z,99691.00
2022-12-26T13:24:51.728Z,99690.53
2022-12-26T13:27:25.802Z,99719.06
2022-12-26T13:29:56.129Z,99747.47
2022-12-26T13:32:31.739Z,99745.63
2022-12-26T13:35:00.378Z,99748.06
2022-12-26T13:37:39.327Z,99767.00
2022-12-26T13:40:12.126Z,99758.78
2022-12-26T13:43:03.352Z,99762.06
2022-12-26T13:45:42.125Z,99761.00
2022-12-26T13:48:18.014Z,99761.34
2022-12-26T13:51:01.944Z,99774.25
2022-12-26T13:53:39.757Z,99801.78
2022-12-26T13:56:26.582Z,99819.22
2022-12-26T13:59:18.074Z,99836.97
2022-12-26T14:02:14.628Z,99859.88
2022-12-26T14:05:46.008Z,99877.91
2022-12-26T14:08:51.340Z,99890.59
2022-12-26T14:11:38.366Z,99911.47
2022-12-26T14:14:26.826Z,99926.56
2022-12-26T14:17:15.235Z,99942.25
2022-12-26T14:20:00.590Z,99965.50
2022-12-26T14:22:40.244Z,99977.16
2022-12-26T14:25:30.295Z,99995.53
2022-12-26T14:28:22.265Z,100020.47
2022-12-26T14:31:04.090Z,100035.81
2022-12-26T14:33:37.044Z,100064.31
2022-12-26T14:36:34.672Z,100087.97
2022-12-26T14:39:04.388Z,100101.03
2022-12-26T14:42:24.475Z,100110.59
2022-12-26T14:44:52.754Z,100112.75
2022-12-26T14:47:49.052Z,100131.75
2022-12-26T14:50:34.073Z,100153.34
2022-12-26T14:53:28.605Z,100172.25
2022-12-26T14:56:01.743Z,100186.59
2022-12-26T14:58:31.494Z,100187.88
2022-12-26T15:01:24.373Z,100209.06
2022-12-26T15:04:07.166Z,100221.31
2022-12-26T15:07:01.702Z,100236.75
2022-12-26T15:10:06.166Z,100281.00
2022-12-26T15:13:06.014Z,100313.19
2022-12-26T15:15:54.132Z,100331.41
2022-12-26T15:19:09.824Z,100366.56
2022-12-26T15:22:11.409Z,100388.53
2022-12-26T15:28:01.690Z,100453.00
2022-12-26T15:30:47.098Z,100485.41
2022-12-26T15:33:24.836Z,100497.16
2022-12-26T15:36:03.928Z,100505.03
2022-12-26T15:38:39.047Z,100544.88
2022-12-26T15:41:20.748Z,100559.50
2022-12-26T15:44:04.300Z,100581.59
2022-12-26T15:46:35.920Z,100603.25
2022-12-26T15:49:27.237Z,100603.88
2022-12-26T15:52:06.284Z,100610.75
2022-12-26T15:55:03.596Z,100616.41
2022-12-26T15:57:45.956Z,100624.28
2022-12-26T16:00:24.786Z,100637.00
2022-12-26T16:03:03.616Z,100646.13
2022-12-26T16:05:40.468Z,100644.72
2022-12-26T16:08:28.905Z,100660.13
2022-12-26T16:11:42.980Z,100671.97
2022-12-26T16:14:24.687Z,100686.50
2022-12-26T16:16:51.634Z,100692.69
2022-12-26T16:19:27.112Z,100707.44
2022-12-26T16:22:21.376Z,100704.13
2022-12-26T16:24:51.461Z,100715.56
2022-12-26T16:27:21.709Z,100721.13
2022-12-26T16:29:52.540Z,100725.63
2022-12-26T16:32:21.379Z,100735.56
2022-12-26T16:34:49.283Z,100737.59
2022-12-26T16:37:21.717Z,100750.66
2022-12-26T16:40:18.840Z,100763.19
2022-12-26T16:42:56.696Z,100764.53
2022-12-26T16:45:24.317Z,100786.25
2022-12-26T16:47:52.387Z,100788.00
2022-12-26T16:50:26.499Z,100799.03
2022-12-26T16:53:04.956Z,100795.28
2022-12-26T16:55:31.561Z,100803.13
2022-12-26T16:58:01.414Z,100825.69
2022-12-26T17:00:28.257Z,100825.00
2022-12-26T17:02:58.957Z,100814.50
2022-12-26T17:05:32.221Z,100822.84
2022-12-26T17:08:02.054Z,100838.91
2022-12-26T17:10:36.114Z,100845.28
2022-12-26T17:13:09.092Z,100853.97
2022-12-26T17:15:48.119Z,100866.81
2022-12-26T17:18:37.110Z,100875.00
2022-12-26T17:21:21.192Z,100888.16
2022-12-26T17:24:09.601Z,100910.03
2022-12-26T17:26:37.990Z,100917.22
2022-12-26T17:29:05.099Z,100918.09
2022-12-26T17:31:34.598Z,100919.63
2022-12-26T17:34:08.032Z,100920.78
2022-12-26T17:39:25.612Z,100942.75
2022-12-26T17:41:55.484Z,100948.28
2022-12-26T17:44:40.906Z,100956.75
2022-12-26T17:47:19.687Z,100977.16
2022-12-26T17:49:47.839Z,100968.75
2022-12-26T17:52:17.000Z,100965.91
2022-12-26T17:54:44.386Z,100963.94
2022-12-26T17:57:18.277Z,100963.81
2022-12-26T17:59:45.050Z,100961.44
2022-12-26T18:02:11.925Z,100959.84
2022-12-26T18:04:38.834Z,100965.31
2022-12-26T18:07:05.788Z,100973.53
2022-12-26T18:09:32.762Z,100975.16
2022-12-26T18:11:59.550Z,100984.81
2022-12-26T18:14:26.262Z,100972.75
2022-12-26T18:16:52.935Z,100983.13
2022-12-26T18:19:20.243Z,100979.66
2022-12-26T18:21:47.167Z,100989.41
2022-12-26T18:24:14.022Z,100987.81
2022-12-26T18:26:40.831Z,100995.25
2022-12-26T18:29:07.632Z,100998.00
2022-12-26T18:31:34.500Z,100987.66
2022-12-26T18:34:01.281Z,100989.72
2022-12-26T18:36:31.676Z,100987.16
2022-12-26T18:38:58.740Z,100987.66
2022-12-26T18:41:25.470Z,100992.00
2022-12-26T18:43:52.311Z,100993.72
2022-12-26T18:46:21.453Z,100996.75
2022-12-26T18:48:48.719Z,100997.19
2022-12-26T18:51:15.936Z,101000.81
2022-12-26T18:53:42.709Z,100989.59
2022-12-26T18:56:18.837Z,100994.75
2022-12-26T18:58:46.814Z,101004.41
2022-12-26T19:01:15.588Z,101012.03
2022-12-26T19:03:43.587Z,101013.16
2022-12-26T19:06:25.129Z,101026.94
2022-12-26T19:08:51.897Z,101025.19
2022-12-26T19:11:18.795Z,101030.88
2022-12-26T19:13:45.742Z,101025.22
2022-12-26T19:16:12.587Z,101042.69
2022-12-26T19:18:39.455Z,101043.63
2022-12-26T19:21:11.823Z,101043.69
2022-12-26T19:23:38.593Z,101050.25
2022-12-26T19:26:13.027Z,101053.94
2022-12-26T19:28:40.038Z,101048.66
2022-12-26T19:31:12.468Z,101062.28
2022-12-26T19:33:39.440Z,101056.00
2022-12-26T19:36:07.819Z,101064.66
2022-12-26T19:38:35.460Z,101070.03
2022-12-26T19:41:06.709Z,101071.94
2022-12-26T19:43:33.709Z,101066.47
2022-12-26T19:46:02.523Z,101066.09
2022-12-26T19:48:31.545Z,101061.34
2022-12-26T19:51:06.325Z,101062.00
2022-12-26T19:53:34.296Z,101062.09
2022-12-26T19:56:07.066Z,101064.28
2022-12-26T19:58:33.825Z,101066.59
2022-12-26T20:01:29.141Z,101074.91
2022-12-26T20:04:03.641Z,101076.88
2022-12-26T20:06:32.423Z,101083.22
2022-12-26T20:09:02.670Z,101085.63
2022-12-26T20:11:32.200Z,101074.84
2022-12-26T20:14:00.438Z,101083.00
2022-12-26T20:19:14.886Z,101078.91
2022-12-26T20:21:41.708Z,101072.94
2022-12-26T20:24:11.307Z,101079.06
2022-12-26T20:26:38.518Z,101068.44
2022-12-26T20:29:05.752Z,101075.41
2022-12-26T20:31:33.132Z,101066.75
2022-12-26T20:34:00.454Z,101080.19
2022-12-26T20:36:36.460Z,101084.44
2022-12-26T20:39:06.969Z,101086.34
2022-12-26T20:41:34.595Z,101079.13
2022-12-26T20:44:01.483Z,101063.19
2022-12-26T20:46:33.305Z,101065.13
2022-12-26T20:49:02.260Z,101066.97
2022-12-26T20:51:36.926Z,101064.94
2022-12-26T20:54:08.931Z,101068.16
2022-12-26T20:56:36.534Z,101061.16
2022-12-26T20:59:04.401Z,101052.34
2022-12-26T21:01:31.464Z,101046.16
2022-12-26T21:03:58.390Z,101057.00
2022-12-26T21:06:30.136Z,101058.75
2022-12-26T21:08:57.738Z,101039.75
2022-12-26T21:11:30.396Z,101043.59
2022-12-26T21:14:01.066Z,101032.31
2022-12-26T21:16:31.987Z,101017.13
2022-12-26T21:18:59.454Z,101011.22
2022-12-26T21:21:35.019Z,101012.53
2022-12-26T21:24:14.461Z,101021.41
2022-12-26T21:26:42.763Z,101016.31
2022-12-26T21:29:13.808Z,101008.59
2022-12-26T21:31:40.885Z,101016.81
2022-12-26T21:34:08.822Z,101018.59
2022-12-26T21:36:35.965Z,101018.03
2022-12-26T21:39:10.386Z,101017.00
2022-12-26T21:41:37.775Z,101007.47
2022-12-26T21:44:04.669Z,101003.63
2022-12-26T21:46:31.498Z,101003.69
2022-12-26T21:48:58.482Z,101007.19
2022-12-26T21:51:25.971Z,101000.94
2022-12-26T21:54:13.005Z,101009.59
2022-12-26T21:56:39.806Z,101018.47
2022-12-26T21:59:25.026Z,101014.13
2022-12-26T22:01:51.864Z,101020.50
2022-12-26T22:04:23.718Z,100999.56
2022-12-26T22:06:51.456Z,101012.09
2022-12-26T22:09:18.278Z,101008.78
2022-12-26T22:12:03.884Z,101002.47
2022-12-26T22:14:30.582Z,101010.66
2022-12-26T22:16:58.016Z,101010.81
2022-12-26T22:19:27.517Z,101028.19
2022-12-26T22:21:54.931Z,101031.00
2022-12-26T22:24:22.112Z,101025.56
2022-12-26T22:26:49.423Z,101024.53
2022-12-26T22:29:16.392Z,101039.06
2022-12-26T22:31:43.243Z,101028.19
2022-12-26T22:34:12.413Z,101039.34
2022-12-26T22:36:40.395Z,101033.97
2022-12-26T22:39:07.220Z,101044.44
2022-12-26T22:41:34.275Z,101038.34
2022-12-26T22:44:01.269Z,101051.00
2022-12-26T22:46:28.086Z,101045.63
2022-12-26T22:48:54.748Z,101039.81
2022-12-26T22:51:23.747Z,101045.38
2022-12-26T22:53:54.561Z,101040.53
2022-12-26T22:56:21.466Z,101033.88
2022-12-26T22:58:48.227Z,101030.81
2022-12-26T23:01:23.317Z,101027.47
2022-12-26T23:03:50.174Z,101026.47
2022-12-26T23:06:26.150Z,101020.72
2022-12-26T23:08:56.710Z,101038.94
2022-12-26T23:11:30.297Z,101036.19
2022-12-26T23:14:01.491Z,101046.00
2022-12-26T23:16:54.047Z,101039.22
2022-12-26T23:19:48.583Z,101052.59
2022-12-26T23:22:15.477Z,101060.06
2022-12-26T23:24:42.180Z,101054.13
2022-12-26T23:27:28.495Z,101058.53
2022-12-26T23:30:14.269Z,101050.78
2022-12-26T23:32:42.292Z,101070.34
2022-12-26T23:35:10.426Z,101073.75
2022-12-26T23:37:38.324Z,101053.03
2022-12-26T23:40:05.763Z,101034.03
2022-12-26T23:42:32.817Z,101027.03
2022-12-26T23:44:59.613Z,101026.91
2022-12-26T23:47:28.135Z,101033.56
2022-12-26T23:49:55.878Z,101032.88
2022-12-26T23:52:28.298Z,101037.13
2022-12-26T23:54:56.964Z,101037.19
2022-12-26T23:57:23.893Z,101058.66
2022-12-26T23:59:50.794Z,101058.50
